Worcester, Wisconsin
Current Conditions -  °F | °C
As of 6:15 AM on Sunday 23 Nov 2014 (Local Time) from KPBH Reporting Station
Moderate Fog Moderate Fog  
Wind Chill: 37°   Ceiling: 200
Heat Index: 42°   Visibility: 0.25mi
Dew Point: 42°   Wind: 9mph
Humidity: 100%   Direction: 180°S
Pressure: 29.49"   Gusts: NA
Location:  45.7439°N, 90.2959°W
Report Text: KPBH 231215Z AUTO 18008KT 1/4SM FG OVC002 06/06 A2949 RMK AO2 T00570057
Loading
Personal Weather Stations






























Interactive Weather Map New forecast layout! Learn more

10-Day Weather Forecast

Advertisements
Track Severe Weather on mobile